Corte Madera, California
Current Conditions -  °F | °C
As of 10:35 AM on Monday 20 Oct 2014 (Local Time) from KDVO Reporting Station
Overcast Overcast  
Wind Chill: 64°   Ceiling: 4100
Heat Index: 64°   Visibility: 10mi
Dew Point: 57°   Wind: 5mph
Humidity: 77%   Direction: 280°W
Pressure: 29.97"   Gusts: NA
Location:  37.93°N, 122.52°W
Report Text: KDVO 201735Z AUTO 28004KT 10SM FEW001 BKN041 OVC049 18/14 A2997 RMK AO2
Loading
Personal Weather Stations






























Interactive Weather Map
Tropical Storm Tracking
New forecast layout! Learn more

10-Day Weather Forecast

Advertisements
Track Severe Weather on mobile